This is the latest recevied weather packets stored in our database for station/object DB0OHA-13. If no packets are shown the sender has not sent any weather packets the latest 10 day(s).
| Time | Temp. | Humidity | Pressure | Rain* | Wind** | Luminosity | Snow |
|---|---|---|---|---|---|---|---|
| 1777474273 | 15° C | 33% | 1027.4 hPa | 0 mm | - | 515 W/m² | - |
| 1777473673 | 14.44° C | 36% | 1027.4 hPa | 0 mm | - | 538 W/m² | - |
| 1777472472 | 15° C | 32% | 1027.4 hPa | 0 mm | - | 580 W/m² | - |
| 1777471872 | 15° C | 31% | 1027.4 hPa | 0 mm | - | 597 W/m² | - |
| 1777471272 | 15.56° C | 31% | 1027.4 hPa | 0 mm | - | 617 W/m² | - |
| 1777470672 | 15.56° C | 32% | 1027.4 hPa | 0 mm | - | 634 W/m² | - |
| 1777470072 | 15.56° C | 32% | 1027.4 hPa | 0 mm | - | 650 W/m² | - |
| 1777469472 | 15.56° C | 32% | 1027.3 hPa | 0 mm | - | 666 W/m² | - |
| 1777468872 | 15.56° C | 32% | 1027.3 hPa | 0 mm | - | 680 W/m² | - |
| 1777468271 | 15.56° C | 34% | 1027.2 hPa | 0 mm | - | 693 W/m² | - |
| 1777467671 | 15° C | 34% | 1027.2 hPa | 0 mm | - | 702 W/m² | - |
| 1777467071 | 14.44° C | 33% | 1027.3 hPa | 0 mm | - | 713 W/m² | - |
| 1777466471 | 14.44° C | 33% | 1027.4 hPa | 0 mm | - | 727 W/m² | - |
| 1777465871 | 15.56° C | 32% | 1027.4 hPa | 0 mm | - | 735 W/m² | - |
| 1777465271 | 15.56° C | 35% | 1027.5 hPa | 0 mm | - | 743 W/m² | - |
| 1777463471 | 15.56° C | 36% | 1027.4 hPa | 0 mm | - | 755 W/m² | - |
| 1777462871 | 15° C | 36% | 1027.4 hPa | 0 mm | - | 759 W/m² | - |
| 1777462271 | 15° C | 36% | 1027.3 hPa | 0 mm | - | 763 W/m² | - |
| 1777461671 | 14.44° C | 35% | 1027.2 hPa | 0 mm | - | 761 W/m² | - |
| 1777461071 | 14.44° C | 36% | 1027.2 hPa | 0 mm | - | 762 W/m² | - |
| 1777460470 | 13.89° C | 33% | 1027.1 hPa | 0 mm | - | 757 W/m² | - |
| 1777459870 | 13.89° C | 37% | 1027.2 hPa | 0 mm | - | 715 W/m² | - |
| 1777458670 | 13.33° C | 41% | 1027.3 hPa | 0 mm | - | 583 W/m² | - |
| 1777458070 | 13.89° C | 39% | 1027.3 hPa | 0 mm | - | 604 W/m² | - |
| 1777457470 | 13.33° C | 38% | 1027.2 hPa | 0 mm | - | 677 W/m² | - |
* Rain latest hour (hover to see other rain measurements)
** Current wind speed in m/s (hover to see current wind gust speed)